LTCW

Hakkari–Yüksekova Airport

Yüksekova, Turkey
TAF LTCW 141940Z 1421/1506 05008KT 9999 SCT035 TEMPO 1503/1506 4000 BR
Issued Valid From Valid To
Dec-14 @ 19:40 UTC
(3 hours ago)
Dec-14 @ 21:00 UTC
(2 hours ago)
Dec-15 @ 06:00 UTC
(in 7 hours)
Dec-14 @ 21:00 to Dec-15 @ 06:00
TAF LTCW 141940Z 1421/1506 05008KT 9999 SCT035
Wind Visibility Clouds
50° at 8 knots 10,000+ meters
  • Scattered at 3,500' AGL
Temporary Dec-15 @ 03:00 to Dec-15 @ 06:00
TEMPO 1503/1506 4000 BR
Visibility Conditions
4,007 meters
  • Mist
TAF LTCW 141940Z 1421/1506 05008KT 9999 SCT035 TEMPO 1503/1506 4000 BR
Issued Dec-14 @ 19:40 UTC
(3 hours ago)
Valid From Dec-14 @ 21:00 UTC
(2 hours ago)
Valid To Dec-15 @ 06:00 UTC
(in 7 hours)
Dec-14 @ 21:00 - Dec-15 @ 06:00
Wind Visibility
50° at 8 knots 10,000+ meters
Clouds
  • Scattered at 3,500' AGL
Temporary Dec-15 @ 03:00 - Dec-15 @ 06:00
Conditions
  • Mist